Cap Ferrato — 9HA3174 — position and weather

sailwx.info

Track history (hours):
 
Tides and Currents Weather Stations Pressure Air Temp Water Temp Dewpoint Dewpoint Depression Visibility Wind Speed Wind Dir Waves Ship Positions

Cap Ferrato

Last reported at 2017-Sep-18 20:22 UTC. Time now 2017-Sep-19 19:14 UTC.
Position S 37°58' E 144°55'.

Length 256 m; draft 10.7 m.

Type: Ship (hazmat cat A). MMSI: 229249000.

Date/timePositionNaut miles runAvg speedWind from/ knotsBaromVisibWave heightAir tempDewpointWater temp
2017-Sep-18 20:22S 37°58' E 144°55'514.0
2017-Sep-18 19:59S 37°53' E 144°56'4 6.7
2017-Sep-18 19:26S 37°49' E 144°55'0 0.1
2017-Sep-18 15:19S 37°49' E 144°55'0 0.0
2017-Sep-18 14:37S 37°49' E 144°55'0 0.0
2017-Sep-18 14:01S 37°49' E 144°55'0 0.0
2017-Sep-18 13:43S 37°49' E 144°55'0 0.0
2017-Sep-17 19:55S 37°49' E 144°55'0 0.0
2017-Sep-17 15:16S 37°49' E 144°55'0 0.0
2017-Sep-17 14:55S 37°49' E 144°55'0 0.0
2017-Sep-17 14:25S 37°49' E 144°55'0 0.0
2017-Sep-16 20:49S 37°49' E 144°55'0 0.2
2017-Sep-16 20:30S 37°49' E 144°55'2 3.1
2017-Sep-16 20:00S 37°50' E 144°54'4 8.7
2017-Sep-16 19:30S 37°54' E 144°56'5 9.4
2017-Sep-16 18:59S 37°59' E 144°55'170 8.8
2017-Sep-15 23:38S 38°34' E 148°27'217.1
2017-Sep-15 23:30S 38°33' E 148°30'917.4
2017-Sep-15 23:00S 38°28' E 148°39'918.0
2017-Sep-15 22:30S 38°23' E 148°49'917.9
2017-Sep-15 22:00S 38°18' E 148°58'34018.1
2017-Sep-15 03:11S 33°23' E 152°25'317.8
2017-Sep-15 03:00S 33°20' E 152°26'918.0
2017-Sep-15 02:30S 33°12' E 152°30'918.7
2017-Sep-15 02:00S 33°03' E 152°34'918.2
2017-Sep-15 01:30S 32°55' E 152°39'918.2
2017-Sep-15 01:00S 32°46' E 152°43'918.9
2017-Sep-15 00:30S 32°38' E 152°47'27219.0
2017-Sep-14 10:11S 28°13' E 153°57'419.3
2017-Sep-14 10:00S 28°09' E 153°58'1019.1
2017-Sep-14 09:28S 27°59' E 153°58'919.4
2017-Sep-14 09:00S 27°50' E 153°59'1019.4
2017-Sep-14 08:30S 27°40' E 153°59'2812193.8
2017-Sep-13 18:00N 12°36' E 129°48'   360 / 71008.0 5.4 25.023.5
Track history (hours):
 
Tides and Currents Weather Stations Pressure Air Temp Water Temp Dewpoint Dewpoint Depression Visibility Wind Speed Wind Dir Waves Ship Positions

Cap Ferrato

Last reported at 2017-Sep-18 20:22 UTC. Time now 2017-Sep-19 19:14 UTC.
Position S 37°58' E 144°55'.

Length 256 m; draft 10.7 m.

Type: Ship (hazmat cat A). MMSI: 229249000.

Date/timePositionNaut miles runAvg speedWind from/ knotsBaromVisibWave heightAir tempDewpointWater temp
2017-Sep-18 20:22S 37°58' E 144°55'514.0
2017-Sep-18 19:59S 37°53' E 144°56'4 6.7
2017-Sep-18 19:26S 37°49' E 144°55'0 0.1
2017-Sep-18 15:19S 37°49' E 144°55'0 0.0
2017-Sep-18 14:37S 37°49' E 144°55'0 0.0
2017-Sep-18 14:01S 37°49' E 144°55'0 0.0
2017-Sep-18 13:43S 37°49' E 144°55'0 0.0
2017-Sep-17 19:55S 37°49' E 144°55'0 0.0
2017-Sep-17 15:16S 37°49' E 144°55'0 0.0
2017-Sep-17 14:55S 37°49' E 144°55'0 0.0
2017-Sep-17 14:25S 37°49' E 144°55'0 0.0
2017-Sep-16 20:49S 37°49' E 144°55'0 0.2
2017-Sep-16 20:30S 37°49' E 144°55'2 3.1
2017-Sep-16 20:00S 37°50' E 144°54'4 8.7
2017-Sep-16 19:30S 37°54' E 144°56'5 9.4
2017-Sep-16 18:59S 37°59' E 144°55'170 8.8
2017-Sep-15 23:38S 38°34' E 148°27'217.1
2017-Sep-15 23:30S 38°33' E 148°30'917.4
2017-Sep-15 23:00S 38°28' E 148°39'918.0
2017-Sep-15 22:30S 38°23' E 148°49'917.9
2017-Sep-15 22:00S 38°18' E 148°58'34018.1
2017-Sep-15 03:11S 33°23' E 152°25'317.8
2017-Sep-15 03:00S 33°20' E 152°26'918.0
2017-Sep-15 02:30S 33°12' E 152°30'918.7
2017-Sep-15 02:00S 33°03' E 152°34'918.2
2017-Sep-15 01:30S 32°55' E 152°39'918.2
2017-Sep-15 01:00S 32°46' E 152°43'918.9
2017-Sep-15 00:30S 32°38' E 152°47'27219.0
2017-Sep-14 10:11S 28°13' E 153°57'419.3
2017-Sep-14 10:00S 28°09' E 153°58'1019.1
2017-Sep-14 09:28S 27°59' E 153°58'919.4
2017-Sep-14 09:00S 27°50' E 153°59'1019.4
2017-Sep-14 08:30S 27°40' E 153°59'2812193.8
2017-Sep-13 18:00N 12°36' E 129°48'   360 / 71008.0 5.4 25.023.5

Dump ship's entire track history